^^
Your Local Weather - Clay, NY Station Historical Data
Daily Summary for March 18, 2017 Units:  Metric    English   Both
« Previous Day
Next Day »
Daily Weekly Monthly Yearly Custom
  High: Low: Average:
Temperature: 1.8 °C -9.4 °C -3.3 °C
Dew Point: -1.3 °C -14.6 °C -7.9 °C
Humidity: 91% 45% 72%
Wind Speed: 9.7km/h 0km/h 3.4km/h
Wind Gust: 17.7km/h - -
Wind- - East
Pressure: 1021.9 hPa 1018.8 hPa -
Precipitation: 1.78 mm    
Historical Graphs
 
 
Tabular Data for March 18, 2017
Time Temperature Dew Point Pressure Wind Wind Speed Wind Gust Humidity Rainfall Rate (Hourly) solar
00:00 -7.3 °C -12.2 °C 1021.6 hPa Calm     68% 0 mm 0 W/m2
00:06 -7.6 °C -12.3 °C 1021.6 hPa Calm     69% 0 mm 0 W/m2
00:12 -7.8 °C -12.5 °C 1021.6 hPa Calm     69% 0 mm 0 W/m2
00:18 -7.9 °C -12.7 °C 1021.6 hPa Calm     69% 0 mm 0 W/m2
00:24 -8.1 °C -12.7 °C 1021.6 hPa Calm     69% 0 mm 0 W/m2
00:30 -8.2 °C -13.1 °C 1021.9 hPa Calm     68% 0 mm 0 W/m2
00:36 -8.3 °C -12.9 °C 1021.9 hPa Calm     69% 0 mm 0 W/m2
00:42 -8.4 °C -12.7 °C 1021.9 hPa Calm     71% 0 mm 0 W/m2
00:48 -8.4 °C -12.6 °C 1021.6 hPa Calm     72% 0 mm 0 W/m2
00:54 -8.4 °C -12.6 °C 1021.6 hPa Calm     72% 0 mm 0 W/m2
01:00 -8.4 °C -12.4 °C 1021.6 hPa Calm     73% 0 mm 0 W/m2
01:06 -8.4 °C -12.4 °C 1021.6 hPa Calm     73% 0 mm 0 W/m2
01:12 -8.3 °C -12.3 °C 1021.6 hPa Calm     73% 0 mm 0 W/m2
01:18 -8.3 °C -12.3 °C 1021.6 hPa Calm     73% 0 mm 0 W/m2
01:24 -8.4 °C -12.6 °C 1021.6 hPa Calm   1.6 km/h 72% 0 mm 0 W/m2
01:30 -8.4 °C -12.8 °C 1021.6 hPa Calm     71% 0 mm 0 W/m2
01:36 -8.7 °C -12.8 °C 1021.6 hPa Calm     72% 0 mm 0 W/m2
01:42 -8.8 °C -12.9 °C 1021.6 hPa Calm     72% 0 mm 0 W/m2
01:48 -8.8 °C -12.9 °C 1021.6 hPa Calm     72% 0 mm 0 W/m2
01:54 -8.8 °C -12.8 °C 1021.6 hPa Calm   1.6 km/h 73% 0 mm 0 W/m2
02:00 -8.7 °C -12.7 °C 1021.6 hPa Calm     73% 0 mm 0 W/m2
02:06 -8.6 °C -12.6 °C 1021.6 hPa Calm     73% 0 mm 0 W/m2
02:12 -8.6 °C -12.6 °C 1021.6 hPa Calm     73% 0 mm 0 W/m2
02:16 -8.7 °C -12.8 °C 1021.6 hPa Calm     72% 0 mm 0 W/m2
02:22 -8.8 °C -12.7 °C 1021.6 hPa Calm     73% 0 mm 0 W/m2
02:28 -8.7 °C -12.6 °C 1021.6 hPa Calm   1.6 km/h 73% 0 mm 0 W/m2
02:34 -8.6 °C -12.6 °C 1021.2 hPa Calm   3.2 km/h 73% 0 mm 0 W/m2
02:40 -8.6 °C -12.7 °C 1021.2 hPa North 1.6 km/h 1.6 km/h 72% 0 mm 0 W/m2
02:46 -8.4 °C -12.6 °C 1021.2 hPa North 1.6 km/h 1.6 km/h 72% 0 mm 0 W/m2
02:52 -8.2 °C -12.6 °C 1021.2 hPa NE 1.6 km/h 4.8 km/h 71% 0 mm 0 W/m2
02:58 -8.1 °C -12.6 °C 1021.2 hPa NE 1.6 km/h 4.8 km/h 70% 0 mm 0 W/m2
03:04 -8.1 °C -12.8 °C 1020.9 hPa ENE 1.6 km/h 3.2 km/h 69% 0 mm 0 W/m2
03:10 -8.2 °C -12.9 °C 1020.9 hPa ENE 1.6 km/h 1.6 km/h 69% 0 mm 0 W/m2
03:16 -8.6 °C -13.1 °C 1020.9 hPa ENE 1.6 km/h 1.6 km/h 70% 0 mm 0 W/m2
03:22 -8.9 °C -13.6 °C 1020.9 hPa Calm     69% 0 mm 0 W/m2
03:28 -9.2 °C -13.5 °C 1021.2 hPa Calm     71% 0 mm 0 W/m2
03:34 -9.4 °C -13.7 °C 1020.9 hPa Calm   1.6 km/h 71% 0 mm 0 W/m2
03:40 -9 °C -13.3 °C 1020.9 hPa East 1.6 km/h 1.6 km/h 71% 0 mm 0 W/m2
03:46 -8.8 °C -13.3 °C 1020.9 hPa East 3.2 km/h 4.8 km/h 70% 0 mm 0 W/m2
03:52 -8.6 °C -13.3 °C 1020.9 hPa East 1.6 km/h 1.6 km/h 69% 0 mm 0 W/m2
03:58 -8.4 °C -13.1 °C 1020.9 hPa East 1.6 km/h 3.2 km/h 69% 0 mm 0 W/m2
04:04 -8.1 °C -13.1 °C 1020.5 hPa East 3.2 km/h 3.2 km/h 67% 0 mm 0 W/m2
04:10 -8.4 °C -13.6 °C 1020.5 hPa ENE 1.6 km/h 1.6 km/h 66% 0 mm 0 W/m2
04:16 -8.4 °C -13.2 °C 1020.5 hPa East 1.6 km/h 6.4 km/h 68% 0 mm 0 W/m2
04:22 -8.2 °C -13.3 °C 1020.5 hPa ENE 3.2 km/h 4.8 km/h 67% 0 mm 0 W/m2
04:28 -8.5 °C -13.3 °C 1020.5 hPa ENE 1.6 km/h 4.8 km/h 68% 0 mm 0 W/m2
04:36 -7.7 °C -13 °C 1020.5 hPa ENE 3.2 km/h 8 km/h 66% 0 mm 0 W/m2
04:42 -7.6 °C -13.2 °C 1020.5 hPa East 3.2 km/h 8 km/h 64% 0 mm 0 W/m2
04:48 -7.7 °C -13.3 °C 1020.2 hPa East 3.2 km/h 8 km/h 64% 0 mm 0 W/m2
04:54 -7.6 °C -13.2 °C 1019.9 hPa ENE 3.2 km/h 6.4 km/h 64% 0 mm 0 W/m2
05:00 -7.3 °C -13.2 °C 1019.9 hPa ENE 3.2 km/h 3.2 km/h 63% 0 mm 0 W/m2
05:06 -7.3 °C -13.4 °C 1019.9 hPa East 3.2 km/h 4.8 km/h 62% 0 mm 0 W/m2
05:12 -7.6 °C -13.4 °C 1019.9 hPa ENE 3.2 km/h 11.3 km/h 63% 0 mm 0 W/m2
05:18 -7 °C -13.3 °C 1019.9 hPa East 4.8 km/h 11.3 km/h 61% 0 mm 0 W/m2
05:24 -6.8 °C -13.3 °C 1019.9 hPa ENE 4.8 km/h 8 km/h 60% 0 mm 0 W/m2
05:30 -6.8 °C -13.5 °C 1019.9 hPa ENE 4.8 km/h 4.8 km/h 59% 0 mm 0 W/m2
05:36 -7.1 °C -13.7 °C 1019.9 hPa ENE 3.2 km/h 4.8 km/h 59% 0 mm 0 W/m2
05:42 -7.3 °C -13.8 °C 1019.9 hPa ENE 1.6 km/h 3.2 km/h 60% 0 mm 0 W/m2
05:48 -7.4 °C -13.8 °C 1020.2 hPa East 1.6 km/h 4.8 km/h 60% 0 mm 0 W/m2
05:54 -7.5 °C -13.9 °C 1020.2 hPa Calm   1.6 km/h 60% 0 mm 0 W/m2
06:00 -7.7 °C -14.1 °C 1020.2 hPa Calm   1.6 km/h 60% 0 mm 0 W/m2
06:06 -7.8 °C -14.1 °C 1019.9 hPa NE 1.6 km/h 6.4 km/h 61% 0 mm 0 W/m2
06:12 -7.9 °C -14.3 °C 1019.9 hPa NE 3.2 km/h 9.7 km/h 60% 0 mm 0 W/m2
06:18 -7.7 °C -14.2 °C 1019.9 hPa East 4.8 km/h 9.7 km/h 60% 0 mm 0 W/m2
06:24 -7.6 °C -14.2 °C 1019.9 hPa East 3.2 km/h 4.8 km/h 59% 0 mm 0 W/m2
06:30 -7.6 °C -14.4 °C 1019.9 hPa East 1.6 km/h 3.2 km/h 58% 0 mm 0 W/m2
06:36 -7.7 °C -14.5 °C 1019.5 hPa ENE 1.6 km/h 3.2 km/h 58% 0 mm 0 W/m2
06:42 -7.9 °C -14.6 °C 1019.5 hPa ENE 3.2 km/h 4.8 km/h 59% 0 mm 0 W/m2
06:48 -7.7 °C -14.5 °C 1019.9 hPa ENE 3.2 km/h 8 km/h 58% 0 mm 0 W/m2
06:54 -7.6 °C -14.4 °C 1019.5 hPa East 3.2 km/h 8 km/h 58% 0 mm 0 W/m2
07:00 -7.8 °C -14.6 °C 1019.5 hPa ENE 3.2 km/h 3.2 km/h 58% 0 mm 0 W/m2
07:06 -7.9 °C -14.5 °C 1019.9 hPa ENE 3.2 km/h 6.4 km/h 59% 0 mm 5 W/m2
07:12 -7.6 °C -14.4 °C 1019.9 hPa ENE 4.8 km/h 4.8 km/h 58% 0 mm 5 W/m2
07:18 -7.7 °C -14.5 °C 1019.9 hPa East 4.8 km/h 4.8 km/h 58% 0 mm 11 W/m2
07:24 -7.7 °C -14.3 °C 1019.9 hPa East 1.6 km/h 3.2 km/h 59% 0 mm 16 W/m2
07:30 -7.7 °C -14.3 °C 1020.2 hPa SE 1.6 km/h 3.2 km/h 59% 0 mm 19 W/m2
07:36 -7.5 °C -14.3 °C 1020.5 hPa SE 1.6 km/h 3.2 km/h 58% 0 mm 25 W/m2
07:42 -7.4 °C -14.2 °C 1020.5 hPa East 1.6 km/h 1.6 km/h 58% 0 mm 26 W/m2
07:48 -7.3 °C -14 °C 1020.5 hPa ENE 3.2 km/h 4.8 km/h 59% 0 mm 40 W/m2
07:54 -7.2 °C -13.8 °C 1020.5 hPa East 4.8 km/h 4.8 km/h 59% 0 mm 47 W/m2
08:00 -6.9 °C -13.8 °C 1020.2 hPa East 8 km/h 14.5 km/h 58% 0 mm 51 W/m2
08:06 -6.7 °C -13.6 °C 1020.2 hPa East 8 km/h 14.5 km/h 58% 0 mm 54 W/m2
08:12 -6.5 °C -13.4 °C 1020.2 hPa East 6.4 km/h 8 km/h 58% 0 mm 56 W/m2
08:18 -6.4 °C -13.3 °C 1019.9 hPa ENE 4.8 km/h 8 km/h 58% 0 mm 62 W/m2
08:26 -6.2 °C -13.2 °C 1019.9 hPa East 6.4 km/h 6.4 km/h 58% 0 mm 69 W/m2
08:32 -6.1 °C -13.3 °C 1019.9 hPa ENE 6.4 km/h 8 km/h 57% 0 mm 77 W/m2
08:38 -5.9 °C -13.1 °C 1019.9 hPa East 4.8 km/h 8 km/h 57% 0 mm 88 W/m2
08:44 -5.8 °C -13 °C 1019.9 hPa ENE 6.4 km/h 8 km/h 57% 0 mm 97 W/m2
08:50 -5.7 °C -12.9 °C 1019.9 hPa East 6.4 km/h 6.4 km/h 57% 0 mm 105 W/m2
08:56 -5.6 °C -12.7 °C 1019.9 hPa ENE 4.8 km/h 6.4 km/h 57% 0 mm 118 W/m2
09:02 -5.3 °C -12.3 °C 1019.9 hPa SE 6.4 km/h 6.4 km/h 58% 0 mm 135 W/m2
09:08 -5.2 °C -12.2 °C 1020.2 hPa ENE 6.4 km/h 6.4 km/h 58% 0 mm 142 W/m2
09:14 -5 °C -12.2 °C 1019.9 hPa ENE 6.4 km/h 8 km/h 57% 0 mm 155 W/m2
09:20 -4.8 °C -12.2 °C 1019.9 hPa ENE 6.4 km/h 6.4 km/h 56% 0 mm 158 W/m2
09:26 -4.6 °C -12 °C 1019.9 hPa ENE 6.4 km/h 6.4 km/h 56% 0 mm 171 W/m2
09:32 -4.3 °C -12.1 °C 1019.9 hPa East 6.4 km/h 8 km/h 55% 0 mm 174 W/m2
09:38 -4 °C -11.7 °C 1019.9 hPa East 6.4 km/h 8 km/h 55% 0 mm 181 W/m2
09:44 -3.7 °C -11.7 °C 1019.9 hPa ENE 6.4 km/h 12.9 km/h 54% 0 mm 193 W/m2
09:50 -3.5 °C -11.7 °C 1019.9 hPa East 6.4 km/h 6.4 km/h 53% 0 mm 223 W/m2
09:56 -3.2 °C -11.4 °C 1019.9 hPa East 4.8 km/h 6.4 km/h 53% 0 mm 241 W/m2
10:02 -2.9 °C -11.2 °C 1019.9 hPa ENE 4.8 km/h 4.8 km/h 53% 0 mm 271 W/m2
10:08 -2.7 °C -11.2 °C 1019.9 hPa ENE 4.8 km/h 6.4 km/h 52% 0 mm 285 W/m2
10:14 -2.4 °C -11.2 °C 1019.9 hPa ESE 6.4 km/h 8 km/h 51% 0 mm 294 W/m2
10:20 -2 °C -11.1 °C 1019.9 hPa ENE 4.8 km/h 8 km/h 50% 0 mm 450 W/m2
10:26 -1.5 °C -10.8 °C 1019.9 hPa ESE 4.8 km/h 14.5 km/h 49% 0 mm 318 W/m2
10:32 -1.6 °C -10.7 °C 1019.9 hPa NNE 4.8 km/h 6.4 km/h 50% 0 mm 316 W/m2
10:38 -1.4 °C -10.2 °C 1019.9 hPa ENE 3.2 km/h 6.4 km/h 51% 0 mm 334 W/m2
10:44 -1.3 °C -10.7 °C 1019.9 hPa ENE 3.2 km/h 8 km/h 49% 0 mm 336 W/m2
10:50 -1.1 °C -10.7 °C 1019.9 hPa ENE 4.8 km/h 4.8 km/h 48% 0 mm 462 W/m2
10:56 -0.7 °C -10.3 °C 1019.9 hPa North 6.4 km/h 6.4 km/h 48% 0 mm 422 W/m2
11:02 -0.7 °C -10.4 °C 1019.5 hPa East 6.4 km/h 8 km/h 48% 0 mm 482 W/m2
11:08 -0.4 °C -10.6 °C 1019.5 hPa East 6.4 km/h 9.7 km/h 46% 0 mm 452 W/m2
11:14 -0.3 °C -10.3 °C 1019.5 hPa East 8 km/h 8 km/h 47% 0 mm 418 W/m2
11:20 -0.2 °C -10.2 °C 1019.5 hPa East 6.4 km/h 12.9 km/h 47% 0 mm 404 W/m2
11:26 -0.3 °C -10.6 °C 1019.5 hPa ENE 8 km/h 16.1 km/h 46% 0 mm 434 W/m2
11:32 -0.2 °C -10.2 °C 1019.5 hPa ENE 9.7 km/h 9.7 km/h 47% 0 mm 418 W/m2
11:38 -0.1 °C -10.7 °C 1019.5 hPa ENE 8 km/h 12.9 km/h 45% 0 mm 418 W/m2
11:44 0.1 °C -10.2 °C 1019.5 hPa East 8 km/h 11.3 km/h 46% 0 mm 452 W/m2
11:50 0.3 °C -9.7 °C 1019.5 hPa East 8 km/h 8 km/h 47% 0 mm 401 W/m2
11:56 0.3 °C -10 °C 1019.5 hPa East 8 km/h 14.5 km/h 46% 0 mm 369 W/m2
12:02 0.3 °C -9.4 °C 1019.5 hPa East 9.7 km/h 9.7 km/h 48% 0 mm 295 W/m2
12:08 0.2 °C -9.8 °C 1019.2 hPa ENE 9.7 km/h 12.9 km/h 47% 0 mm 272 W/m2
12:14 0.2 °C -9.8 °C 1019.2 hPa ESE 9.7 km/h 16.1 km/h 47% 0 mm 260 W/m2
12:20 0.4 °C -9.1 °C 1019.2 hPa NE 8 km/h 12.9 km/h 49% 0 mm 223 W/m2
12:26 0.4 °C -9.3 °C 1019.2 hPa ENE 6.4 km/h 14.5 km/h 48% 0 mm 216 W/m2
12:32 0.6 °C -9.5 °C 1019.2 hPa ENE 4.8 km/h 6.4 km/h 47% 0 mm 214 W/m2
12:38 0.6 °C -9.5 °C 1019.2 hPa ENE 4.8 km/h 6.4 km/h 47% 0 mm 209 W/m2
12:46 0.5 °C -9.6 °C 1019.2 hPa ENE 6.4 km/h 14.5 km/h 47% 0 mm 227 W/m2
12:52 0.7 °C -9.1 °C 1019.5 hPa ESE 4.8 km/h 6.4 km/h 48% 0 mm 206 W/m2
12:58 0.8 °C -9.2 °C 1019.5 hPa SE 4.8 km/h 6.4 km/h 47% 0 mm 178 W/m2
13:04 0.9 °C -9.7 °C 1019.5 hPa ESE 4.8 km/h 4.8 km/h 45% 0 mm 153 W/m2
13:10 0.9 °C -8.8 °C 1019.5 hPa ESE 4.8 km/h 4.8 km/h 48% 0 mm 123 W/m2
13:16 1 °C -8.6 °C 1019.5 hPa ESE 4.8 km/h 6.4 km/h 49% 0 mm 137 W/m2
13:22 0.7 °C -6.9 °C 1019.5 hPa East 4.8 km/h 4.8 km/h 57% 0 mm 220 W/m2
13:28 0.9 °C -6.6 °C 1019.5 hPa East 3.2 km/h 4.8 km/h 57% 0 mm 281 W/m2
13:34 1.2 °C -6.8 °C 1019.2 hPa ENE 3.2 km/h 6.4 km/h 55% 0 mm 332 W/m2
13:40 1.4 °C -6.7 °C 1019.2 hPa ESE 3.2 km/h 4.8 km/h 55% 0 mm 343 W/m2
13:46 1.7 °C -7.2 °C 1019.2 hPa ENE 3.2 km/h 4.8 km/h 52% 0 mm 329 W/m2
13:52 1.8 °C -7.1 °C 1018.8 hPa ENE 4.8 km/h 14.5 km/h 52% 0 mm 323 W/m2
13:58 1.6 °C -3.9 °C 1018.8 hPa East 6.4 km/h 14.5 km/h 67% 0 mm 276 W/m2
14:06 1.2 °C -2.9 °C 1018.8 hPa SE 6.4 km/h 6.4 km/h 74% 0 mm 279 W/m2
14:12 0.8 °C -3 °C 1018.8 hPa SSE 6.4 km/h 6.4 km/h 76% 0 mm 272 W/m2
14:18 0.7 °C -2.7 °C 1018.8 hPa SSE 6.4 km/h 9.7 km/h 78% 0 mm 227 W/m2
14:24 0.6 °C -2.3 °C 1018.8 hPa SE 6.4 km/h 8 km/h 81% 0 mm 151 W/m2
14:30 0.4 °C -2.2 °C 1018.8 hPa East 8 km/h 9.7 km/h 83% 0 mm 169 W/m2
14:36 0.4 °C -2 °C 1018.8 hPa SSE 6.4 km/h 9.7 km/h 84% 0 mm 153 W/m2
14:42 0.3 °C -2.1 °C 1018.8 hPa ENE 8 km/h 17.7 km/h 84% 0 mm 111 W/m2
14:48 0.1 °C -2.2 °C 1018.8 hPa SSE 6.4 km/h 17.7 km/h 85% 0 mm 109 W/m2
14:54 0.1 °C -2 °C 1018.8 hPa East 4.8 km/h 6.4 km/h 86% 0 mm 113 W/m2
15:00 0 °C -2.1 °C 1018.8 hPa ENE 4.8 km/h 4.8 km/h 86% 0 mm 158 W/m2
15:06 -0.1 °C -1.9 °C 1018.8 hPa East 6.4 km/h 8 km/h 87% 0 mm 151 W/m2
15:12 -0.1 °C -1.9 °C 1018.8 hPa ENE 4.8 km/h 6.4 km/h 87% 0 mm 127 W/m2
15:18 -0.2 °C -1.9 °C 1018.8 hPa East 6.4 km/h 6.4 km/h 88% 0 mm 97 W/m2
15:24 -0.3 °C -2.1 °C 1018.8 hPa ENE 6.4 km/h 8 km/h 88% 0 mm 95 W/m2
15:30 -0.4 °C -2.2 °C 1018.8 hPa East 8 km/h 9.7 km/h 88% 0 mm 83 W/m2
15:36 -0.4 °C -2.2 °C 1018.8 hPa ENE 6.4 km/h 9.7 km/h 88% 0 mm 113 W/m2
15:42 -0.4 °C -2 °C 1018.8 hPa East 6.4 km/h 16.1 km/h 89% 0 mm 107 W/m2
15:48 -0.4 °C -2 °C 1018.8 hPa ENE 6.4 km/h 16.1 km/h 89% 0 mm 79 W/m2
15:54 -0.4 °C -2.1 °C 1018.8 hPa ENE 4.8 km/h 8 km/h 89% 0 mm 79 W/m2
16:00 -0.4 °C -2.1 °C 1018.8 hPa ENE 4.8 km/h 16.1 km/h 89% 0 mm 86 W/m2
16:06 -0.5 °C -2.1 °C 1018.8 hPa ENE 6.4 km/h 16.1 km/h 89% 0 mm 100 W/m2
16:12 -0.4 °C -1.9 °C 1018.8 hPa ESE 6.4 km/h 6.4 km/h 90% 0 mm 111 W/m2
16:18 -0.3 °C -1.8 °C 1018.8 hPa ESE 4.8 km/h 6.4 km/h 90% 0 mm 142 W/m2
16:24 -0.1 °C -1.6 °C 1018.8 hPa ENE 3.2 km/h 4.8 km/h 90% 0 mm 137 W/m2
16:30 0 °C -1.4 °C 1018.8 hPa ENE 4.8 km/h 4.8 km/h 90% 1.52 mm 148 W/m2
16:36 0.1 °C -1.4 °C 1018.8 hPa ENE 4.8 km/h 4.8 km/h 90% 1.52 mm 135 W/m2
16:42 0.1 °C -1.3 °C 1018.8 hPa ENE 4.8 km/h 4.8 km/h 90% 1.52 mm 120 W/m2
16:48 0.2 °C -1.3 °C 1018.8 hPa East 4.8 km/h 9.7 km/h 90% 1.52 mm 104 W/m2
16:54 0.2 °C -1.3 °C 1018.8 hPa East 4.8 km/h 4.8 km/h 90% 1.02 mm 93 W/m2
17:00 0.1 °C -1.3 °C 1018.8 hPa ENE 3.2 km/h 3.2 km/h 90% 0 mm 98 W/m2
17:06 0 °C -1.4 °C 1018.8 hPa East 4.8 km/h 4.8 km/h 90% 0 mm 90 W/m2
17:12 -0.1 °C -1.5 °C 1018.8 hPa ENE 4.8 km/h 6.4 km/h 90% 0 mm 88 W/m2
17:18 -0.1 °C -1.5 °C 1018.8 hPa ENE 6.4 km/h 8 km/h 90% 0 mm 63 W/m2
17:24 -0.2 °C -1.7 °C 1018.8 hPa East 8 km/h 12.9 km/h 90% 0 mm 56 W/m2
17:30 -0.3 °C -1.7 °C 1018.8 hPa ENE 6.4 km/h 6.4 km/h 90% 0 mm 49 W/m2
17:36 -0.3 °C -1.8 °C 1019.2 hPa East 6.4 km/h 6.4 km/h 90% 0 mm 44 W/m2
17:42 -0.3 °C -1.6 °C 1019.2 hPa ENE 6.4 km/h 6.4 km/h 91% 0 mm 53 W/m2
17:48 -0.3 °C -1.6 °C 1019.2 hPa ENE 4.8 km/h 6.4 km/h 91% 0 mm 42 W/m2
17:54 -0.3 °C -1.6 °C 1019.2 hPa ENE 4.8 km/h 6.4 km/h 91% 0 mm 32 W/m2
18:00 -0.3 °C -1.6 °C 1019.2 hPa ENE 4.8 km/h 4.8 km/h 91% 0 mm 28 W/m2
18:06 -0.3 °C -1.6 °C 1019.2 hPa NNE 1.6 km/h 4.8 km/h 91% 0 mm 28 W/m2
18:12 -0.3 °C -1.6 °C 1019.5 hPa Calm     91% 0 mm 25 W/m2
18:18 -0.3 °C -1.6 °C 1019.5 hPa Calm     91% 0 mm 23 W/m2
18:24 -0.4 °C -1.7 °C 1019.5 hPa Calm     91% 0 mm 19 W/m2
18:30 -0.5 °C -1.8 °C 1019.5 hPa Calm     91% 0 mm 18 W/m2
18:36 -0.6 °C -1.8 °C 1019.5 hPa Calm     91% 0 mm 14 W/m2
18:42 -0.6 °C -1.8 °C 1019.5 hPa Calm     91% 0 mm 12 W/m2
18:48 -0.6 °C -1.9 °C 1019.9 hPa Calm     91% 0 mm 9 W/m2
18:54 -0.7 °C -1.9 °C 1019.9 hPa Calm     91% 0 mm 5 W/m2
19:00 -0.7 °C -1.9 °C 1019.9 hPa Calm     91% 0 mm 0 W/m2
19:06 -0.7 °C -2 °C 1019.9 hPa Calm     91% 0 mm 0 W/m2
19:12 -0.7 °C -1.9 °C 1019.9 hPa Calm     91% 0 mm 0 W/m2
19:18 -0.7 °C -1.9 °C 1019.9 hPa Calm     91% 0 mm 0 W/m2
19:24 -0.6 °C -1.9 °C 1019.9 hPa Calm     91% 0 mm 0 W/m2
19:30 -0.6 °C -1.8 °C 1020.2 hPa Calm     91% 0 mm 0 W/m2
19:36 -0.6 °C -1.8 °C 1020.2 hPa Calm     91% 0 mm 0 W/m2
19:42 -0.5 °C -1.8 °C 1020.2 hPa Calm     91% 0 mm 0 W/m2
19:48 -0.5 °C -1.8 °C 1020.5 hPa Calm     91% 0 mm 0 W/m2
19:54 -0.5 °C -1.8 °C 1020.5 hPa Calm     91% 0 mm 0 W/m2
20:00 -0.5 °C -1.8 °C 1020.5 hPa Calm     91% 0 mm 0 W/m2
20:08 -0.6 °C -1.8 °C 1020.5 hPa Calm     91% 0 mm 0 W/m2
20:14 -0.6 °C -1.8 °C 1020.5 hPa Calm     91% 0 mm 0 W/m2
20:20 -0.6 °C -1.8 °C 1020.5 hPa Calm     91% 0 mm 0 W/m2
20:26 -0.6 °C -1.8 °C 1020.9 hPa Calm     91% 0 mm 0 W/m2
20:32 -0.6 °C -1.8 °C 1020.9 hPa Calm     91% 0 mm 0 W/m2
20:38 -0.6 °C -1.8 °C 1020.9 hPa Calm     91% 0 mm 0 W/m2
20:44 -0.6 °C -1.8 °C 1020.9 hPa Calm     91% 0 mm 0 W/m2
20:50 -0.6 °C -1.8 °C 1021.2 hPa Calm     91% 0 mm 0 W/m2
20:56 -0.4 °C -1.7 °C 1021.2 hPa Calm   6.4 km/h 91% 0 mm 0 W/m2
21:02 -0.4 °C -1.7 °C 1021.2 hPa ENE 3.2 km/h 6.4 km/h 91% 0 mm 0 W/m2
21:08 -0.4 °C -1.7 °C 1021.2 hPa East 4.8 km/h 6.4 km/h 91% 0 mm 0 W/m2
21:14 -0.4 °C -1.7 °C 1021.2 hPa ENE 4.8 km/h 8 km/h 91% 0 mm 0 W/m2
21:20 -0.4 °C -1.7 °C 1021.2 hPa East 4.8 km/h 4.8 km/h 91% 0 mm 0 W/m2
21:25 -0.4 °C -1.7 °C 1021.2 hPa ESE 3.2 km/h 6.4 km/h 91% 0 mm 0 W/m2
21:32 -0.4 °C -1.8 °C 1021.2 hPa ESE 4.8 km/h 4.8 km/h 90% 0 mm 0 W/m2
21:38 -0.4 °C -1.8 °C 1021.2 hPa East 3.2 km/h 9.7 km/h 90% 0 mm 0 W/m2
21:44 -0.4 °C -1.8 °C 1021.6 hPa East 3.2 km/h 4.8 km/h 90% 0 mm 0 W/m2
21:50 -0.4 °C -1.8 °C 1021.6 hPa ESE 3.2 km/h 3.2 km/h 90% 0 mm 0 W/m2
21:56 -0.4 °C -1.8 °C 1021.6 hPa East 3.2 km/h 4.8 km/h 90% 0 mm 0 W/m2
22:02 -0.4 °C -1.8 °C 1021.6 hPa East 3.2 km/h 4.8 km/h 90% 0 mm 0 W/m2
22:08 -0.4 °C -1.8 °C 1021.6 hPa ESE 3.2 km/h 11.3 km/h 90% 0 mm 0 W/m2
22:14 -0.4 °C -2 °C 1021.6 hPa East 3.2 km/h 3.2 km/h 89% 0 mm 0 W/m2
22:20 -0.4 °C -2.1 °C 1021.6 hPa East 1.6 km/h 3.2 km/h 89% 0 mm 0 W/m2
22:26 -0.4 °C -2.1 °C 1021.6 hPa East 3.2 km/h 3.2 km/h 89% 0 mm 0 W/m2
22:32 -0.4 °C -2.1 °C 1021.6 hPa East 3.2 km/h 4.8 km/h 89% 0 mm 0 W/m2
22:38 -0.4 °C -2.1 °C 1021.6 hPa ENE 3.2 km/h 4.8 km/h 89% 0 mm 0 W/m2
22:44 -0.4 °C -2 °C 1021.6 hPa East 4.8 km/h 4.8 km/h 89% 0 mm 0 W/m2
22:50 -0.4 °C -2 °C 1021.6 hPa East 3.2 km/h 3.2 km/h 89% 0 mm 0 W/m2
22:56 -0.4 °C -2 °C 1021.6 hPa ENE 1.6 km/h 3.2 km/h 89% 0 mm 0 W/m2
23:02 -0.4 °C -2.1 °C 1021.6 hPa ENE 1.6 km/h 1.6 km/h 88% 0 mm 0 W/m2
23:14 -0.3 °C -2.1 °C 1021.6 hPa ENE 3.2 km/h 3.2 km/h 88% 0 mm 0 W/m2
23:20 -0.3 °C -2.1 °C 1021.6 hPa NE 3.2 km/h 3.2 km/h 88% 0 mm 0 W/m2
23:28 -0.4 °C -2.1 °C 1021.9 hPa NE 1.6 km/h 3.2 km/h 88% 0 mm 0 W/m2
23:34 -0.3 °C -2.1 °C 1021.9 hPa ENE 1.6 km/h 6.4 km/h 88% 0 mm 0 W/m2
23:40 -0.3 °C -2.2 °C 1021.9 hPa East 1.6 km/h 8 km/h 87% 0 mm 0 W/m2
23:46 -0.3 °C -2.2 °C 1021.9 hPa East 1.6 km/h 8 km/h 87% 0 mm 0 W/m2
23:52 -0.3 °C -2.2 °C 1021.9 hPa East 1.6 km/h 3.2 km/h 87% 0 mm 0 W/m2
23:58 -0.3 °C -2.2 °C 1021.6 hPa East 1.6 km/h 3.2 km/h 87% 0 mm 0 W/m2
Country Meadow, Clay, NY, USA
Compliments of Weather Underground - 2 mb